createdAt,value
2019-04-04T00:01:48.862Z,8.20
2019-04-04T00:04:21.903Z,8.10
2019-04-04T00:06:49.818Z,8.20
2019-04-04T00:09:19.464Z,8.10
2019-04-04T00:11:49.081Z,7.90
2019-04-04T00:14:18.821Z,8.00
2019-04-04T00:17:07.801Z,8.00
2019-04-04T00:19:37.436Z,8.00
2019-04-04T00:22:07.064Z,8.10
2019-04-04T00:24:39.341Z,8.00
2019-04-04T00:27:07.958Z,8.10
2019-04-04T00:29:37.596Z,8.10
2019-04-04T00:32:07.221Z,8.00
2019-04-04T00:34:36.948Z,8.00
2019-04-04T00:37:06.588Z,8.00
2019-04-04T00:39:36.209Z,8.10
2019-04-04T00:42:05.845Z,8.00
2019-04-04T00:44:35.460Z,8.00
2019-04-04T00:47:05.165Z,7.90
2019-04-04T00:49:35.538Z,8.00
2019-04-04T00:52:05.840Z,8.00
2019-04-04T00:54:35.468Z,8.00
2019-04-04T00:57:05.178Z,8.00
2019-04-04T00:59:34.798Z,8.10
2019-04-04T01:02:04.500Z,8.00
2019-04-04T01:04:34.279Z,8.10
2019-04-04T01:07:05.167Z,8.00
2019-04-04T01:09:35.408Z,8.10
2019-04-04T01:12:05.122Z,8.00
2019-04-04T01:14:34.860Z,8.00
2019-04-04T01:17:04.809Z,8.00
2019-04-04T01:19:34.699Z,8.00
2019-04-04T01:22:04.406Z,7.90
2019-04-04T01:24:35.092Z,7.90
2019-04-04T01:27:06.210Z,7.80
2019-04-04T01:29:36.107Z,7.90
2019-04-04T01:32:05.746Z,7.70
2019-04-04T01:34:35.361Z,7.90
2019-04-04T01:37:05.074Z,7.80
2019-04-04T01:39:34.712Z,7.90
2019-04-04T01:42:05.052Z,7.90
2019-04-04T01:44:35.870Z,8.00
2019-04-04T01:47:05.584Z,7.80
2019-04-04T01:49:35.204Z,8.10
2019-04-04T01:52:04.986Z,8.00
2019-04-04T01:54:34.597Z,8.10
2019-04-04T01:57:07.674Z,8.00
2019-04-04T01:59:35.622Z,8.00
2019-04-04T02:02:05.581Z,8.20
2019-04-04T02:04:35.204Z,8.10
2019-04-04T02:07:17.229Z,8.10
2019-04-04T02:09:46.837Z,7.90
2019-04-04T02:12:16.480Z,7.90
2019-04-04T02:14:46.269Z,7.70
2019-04-04T02:17:15.909Z,7.70
2019-04-04T02:19:45.525Z,7.80
2019-04-04T02:22:15.244Z,7.80
2019-04-04T02:24:44.861Z,7.80
2019-04-04T02:27:14.501Z,7.90
2019-04-04T02:29:44.118Z,8.00
2019-04-04T02:32:25.963Z,8.00
2019-04-04T02:34:52.543Z,8.00
2019-04-04T02:37:22.193Z,7.80
2019-04-04T02:39:51.812Z,7.90
2019-04-04T02:42:22.470Z,7.90
2019-04-04T02:44:53.312Z,7.90
2019-04-04T02:47:22.949Z,7.90
2019-04-04T02:49:52.572Z,7.90
2019-04-04T02:52:22.353Z,7.80
2019-04-04T02:54:52.006Z,7.90
2019-04-04T02:57:21.659Z,7.70
2019-04-04T02:59:53.446Z,7.70
2019-04-04T03:02:22.898Z,7.70
2019-04-04T03:04:53.029Z,7.80
2019-04-04T03:07:22.673Z,7.50
2019-04-04T03:09:52.361Z,7.60
2019-04-04T03:12:25.733Z,7.50
2019-04-04T03:14:53.315Z,7.50
2019-04-04T03:17:22.959Z,7.60
2019-04-04T03:20:16.289Z,7.70
2019-04-04T03:22:43.622Z,7.90
2019-04-04T03:25:14.774Z,8.00
2019-04-04T03:27:44.503Z,8.00
2019-04-04T03:30:16.994Z,7.80
2019-04-04T03:32:51.397Z,7.80
2019-04-04T03:35:26.026Z,7.80
2019-04-04T03:37:49.877Z,7.90
2019-04-04T03:40:19.494Z,7.80
2019-04-04T03:42:49.146Z,7.70
2019-04-04T03:45:18.760Z,7.70
2019-04-04T03:47:48.400Z,7.70
2019-04-04T03:50:18.014Z,7.80
2019-04-04T03:52:47.653Z,7.80
2019-04-04T03:55:17.274Z,7.90
2019-04-04T03:57:46.921Z,7.80
2019-04-04T04:00:28.117Z,7.90
2019-04-04T04:02:57.826Z,7.80
2019-04-04T04:05:33.834Z,7.70
2019-04-04T04:08:00.158Z,7.70
2019-04-04T04:10:33.393Z,7.80
2019-04-04T04:13:01.048Z,7.60
2019-04-04T04:15:30.764Z,7.60
2019-04-04T04:18:00.370Z,7.70
2019-04-04T04:20:29.981Z,7.70
2019-04-04T04:23:00.098Z,7.70
2019-04-04T04:25:29.717Z,7.80
2019-04-04T04:28:02.805Z,7.80
2019-04-04T04:30:30.609Z,7.70
2019-04-04T04:33:00.245Z,7.60
2019-04-04T04:35:29.891Z,7.60
2019-04-04T04:38:00.009Z,7.70
2019-04-04T04:40:29.706Z,7.60
2019-04-04T04:43:00.815Z,7.50
2019-04-04T04:45:30.653Z,7.50
2019-04-04T04:48:00.316Z,7.40
2019-04-04T04:50:30.094Z,7.50
2019-04-04T04:52:59.734Z,7.70
2019-04-04T04:55:29.401Z,7.60
2019-04-04T04:57:59.328Z,7.70
2019-04-04T05:00:28.937Z,7.50
2019-04-04T05:02:58.645Z,7.50
2019-04-04T05:05:31.144Z,7.40
2019-04-04T05:07:59.538Z,7.50
2019-04-04T05:10:29.180Z,7.50
2019-04-04T05:12:58.788Z,7.70
2019-04-04T05:15:30.398Z,7.70
2019-04-04T05:17:59.832Z,7.70
2019-04-04T05:20:29.924Z,7.60
2019-04-04T05:22:59.678Z,7.60
2019-04-04T05:25:31.289Z,7.60
2019-04-04T05:28:00.523Z,7.50
2019-04-04T05:30:30.185Z,7.50
2019-04-04T05:32:59.812Z,7.60
2019-04-04T05:35:31.222Z,7.60
2019-04-04T05:38:01.782Z,7.80
2019-04-04T05:40:33.197Z,7.70
2019-04-04T05:43:04.195Z,7.50
2019-04-04T05:45:34.237Z,7.60
2019-04-04T05:48:04.256Z,7.50
2019-04-04T05:50:34.385Z,7.60
2019-04-04T05:53:04.816Z,7.80
2019-04-04T05:55:34.679Z,7.70
2019-04-04T05:58:04.350Z,7.60
2019-04-04T06:00:35.905Z,7.60
2019-04-04T06:03:05.588Z,7.60
2019-04-04T06:05:35.302Z,7.80
2019-04-04T06:08:07.850Z,7.80
2019-04-04T06:10:36.396Z,7.60
2019-04-04T06:13:06.328Z,7.70
2019-04-04T06:15:37.599Z,7.70
2019-04-04T06:18:08.994Z,7.40
2019-04-04T06:20:38.550Z,7.40
2019-04-04T06:23:08.354Z,7.50
2019-04-04T06:25:39.081Z,7.70
2019-04-04T06:28:11.617Z,7.40
2019-04-04T06:30:43.601Z,7.60
2019-04-04T06:33:12.796Z,7.50
2019-04-04T06:35:47.316Z,7.50
2019-04-04T06:38:15.506Z,7.60
2019-04-04T06:40:45.977Z,7.60
2019-04-04T06:43:16.052Z,7.40
2019-04-04T06:45:46.523Z,7.60
2019-04-04T06:51:28.402Z,7.70
2019-04-04T06:53:59.549Z,7.50
2019-04-04T06:56:31.767Z,7.40
2019-04-04T06:59:01.325Z,7.50
2019-04-04T07:01:30.983Z,7.60
2019-04-04T07:04:00.607Z,7.60
2019-04-04T07:06:31.909Z,7.80
2019-04-04T07:09:01.670Z,7.80
2019-04-04T07:11:34.808Z,7.90
2019-04-04T07:14:03.423Z,7.70
2019-04-04T07:16:36.228Z,7.90
2019-04-04T07:19:07.744Z,8.00
2019-04-04T07:21:36.606Z,7.90
2019-04-04T07:24:06.232Z,7.80
2019-04-04T07:26:35.976Z,7.80
2019-04-04T07:29:06.261Z,7.80
2019-04-04T07:31:38.257Z,7.70
2019-04-04T07:34:09.944Z,7.70
2019-04-04T07:36:39.581Z,7.40
2019-04-04T07:39:12.141Z,7.00
2019-04-04T07:41:44.759Z,6.90
2019-04-04T07:44:12.453Z,6.70
2019-04-04T07:46:45.513Z,6.60
2019-04-04T07:49:14.352Z,6.70
2019-04-04T07:51:45.165Z,6.70
2019-04-04T07:54:14.789Z,6.60
2019-04-04T07:56:48.751Z,6.60
2019-04-04T07:59:17.652Z,6.70
2019-04-04T08:01:51.394Z,6.70
2019-04-04T08:04:18.822Z,6.50
2019-04-04T08:06:48.537Z,6.60
2019-04-04T08:09:18.224Z,6.60
2019-04-04T08:11:48.339Z,6.60
2019-04-04T08:14:18.662Z,6.90
2019-04-04T08:16:48.371Z,6.90
2019-04-04T08:19:18.008Z,7.00
2019-04-04T08:21:48.095Z,7.10
2019-04-04T08:24:18.188Z,7.20
2019-04-04T08:26:47.923Z,7.30
2019-04-04T08:29:17.569Z,7.40
2019-04-04T08:31:47.212Z,7.40
2019-04-04T08:34:16.847Z,7.50
2019-04-04T08:36:46.590Z,7.60
2019-04-04T08:39:16.649Z,7.70
2019-04-04T08:41:46.766Z,7.70
2019-04-04T08:44:17.082Z,7.70
2019-04-04T08:47:07.966Z,7.60
2019-04-04T08:49:37.726Z,7.70
2019-04-04T08:52:16.597Z,7.70
2019-04-04T08:54:39.128Z,7.80
2019-04-04T08:57:08.768Z,7.80
2019-04-04T08:59:38.705Z,7.70
2019-04-04T09:02:19.957Z,7.80
2019-04-04T09:04:49.661Z,7.60
2019-04-04T09:07:20.630Z,7.50
2019-04-04T09:09:50.368Z,7.50
2019-04-04T09:12:20.010Z,7.30
2019-04-04T09:14:49.633Z,7.40
2019-04-04T09:17:19.384Z,7.40
2019-04-04T09:19:49.007Z,7.20
2019-04-04T09:22:19.220Z,7.20
2019-04-04T09:24:48.896Z,7.10
2019-04-04T09:27:18.624Z,7.10
2019-04-04T09:29:48.250Z,7.10
2019-04-04T09:32:17.901Z,7.10
2019-04-04T09:34:47.512Z,7.10
2019-04-04T09:37:17.156Z,7.10
2019-04-04T09:39:46.785Z,7.00
2019-04-04T09:42:16.429Z,7.00
2019-04-04T09:44:46.045Z,7.00
2019-04-04T09:47:15.833Z,7.10
2019-04-04T09:49:45.462Z,7.00
2019-04-04T09:52:15.111Z,7.00
2019-04-04T09:54:45.090Z,7.20
2019-04-04T09:57:15.157Z,7.30
2019-04-04T09:59:44.773Z,7.30
2019-04-04T10:02:34.455Z,7.20
2019-04-04T10:05:06.258Z,7.40
2019-04-04T10:07:35.993Z,7.30
2019-04-04T10:10:08.860Z,7.40
2019-04-04T10:12:39.641Z,7.40
2019-04-04T10:15:09.665Z,7.40
2019-04-04T10:17:39.377Z,7.40
2019-04-04T10:20:09.435Z,7.40
2019-04-04T10:22:41.401Z,7.30
2019-04-04T10:25:11.517Z,7.20
2019-04-04T10:27:41.328Z,7.20
2019-04-04T10:30:11.483Z,7.10
2019-04-04T10:32:41.437Z,7.30
2019-04-04T10:35:12.285Z,7.40
2019-04-04T10:37:42.182Z,7.30
2019-04-04T10:40:13.777Z,7.30
2019-04-04T10:42:43.689Z,7.20
2019-04-04T10:45:13.645Z,7.10
2019-04-04T10:47:43.404Z,7.00
2019-04-04T10:50:13.557Z,7.00
2019-04-04T10:52:43.222Z,6.80
2019-04-04T10:55:13.266Z,6.80
2019-04-04T10:57:43.965Z,6.70
2019-04-04T11:00:14.027Z,6.80
2019-04-04T11:02:43.732Z,7.00
2019-04-04T11:05:14.836Z,6.80
2019-04-04T11:07:44.733Z,6.50
2019-04-04T11:10:15.151Z,6.40
2019-04-04T11:12:44.808Z,6.30
2019-04-04T11:15:14.737Z,6.10
2019-04-04T11:17:44.348Z,5.80
2019-04-04T11:20:17.165Z,5.80
2019-04-04T11:22:46.850Z,5.90
2019-04-04T11:25:16.573Z,6.10
2019-04-04T11:27:46.383Z,6.00
2019-04-04T11:30:16.742Z,5.80
2019-04-04T11:32:48.810Z,5.80
2019-04-04T11:35:17.693Z,5.80
2019-04-04T11:37:47.673Z,5.70
2019-04-04T11:40:17.792Z,5.70
2019-04-04T11:42:47.443Z,5.50
2019-04-04T11:45:18.855Z,5.50
2019-04-04T11:47:49.293Z,5.30
2019-04-04T11:50:19.082Z,5.40
2019-04-04T11:52:49.274Z,5.30
2019-04-04T11:55:19.257Z,5.50
2019-04-04T11:57:49.764Z,5.40
2019-04-04T12:00:21.080Z,5.20
2019-04-04T12:02:50.901Z,5.20
2019-04-04T12:05:21.122Z,5.20
2019-04-04T12:07:51.285Z,5.20
2019-04-04T12:10:21.222Z,5.20
2019-04-04T12:12:51.296Z,5.30
2019-04-04T12:15:21.709Z,5.40
2019-04-04T12:17:51.920Z,5.30
2019-04-04T12:20:22.496Z,5.50
2019-04-04T12:22:53.319Z,5.60
2019-04-04T12:25:23.759Z,5.40
2019-04-04T12:27:53.592Z,5.50
2019-04-04T12:30:23.296Z,5.50
2019-04-04T12:32:52.916Z,5.60
2019-04-04T12:35:22.595Z,5.60
2019-04-04T12:37:52.546Z,5.50
2019-04-04T12:40:22.346Z,5.50
2019-04-04T12:42:52.063Z,5.40
2019-04-04T12:45:22.434Z,5.30
2019-04-04T12:47:52.060Z,5.30
2019-04-04T12:50:21.707Z,5.20
2019-04-04T12:52:51.317Z,5.30
2019-04-04T12:55:21.317Z,5.30
2019-04-04T12:57:51.145Z,5.30
2019-04-04T13:00:21.154Z,5.50
2019-04-04T13:02:51.461Z,5.40
2019-04-04T13:05:21.339Z,5.50
2019-04-04T13:07:51.837Z,5.50
2019-04-04T13:10:32.317Z,5.50
2019-04-04T13:12:53.001Z,5.40
2019-04-04T13:15:22.647Z,5.40
2019-04-04T13:17:52.292Z,5.50
2019-04-04T13:20:22.086Z,6.00
2019-04-04T13:22:52.217Z,6.00
2019-04-04T13:25:21.830Z,5.60
2019-04-04T13:27:51.534Z,5.50
2019-04-04T13:30:21.416Z,5.50
2019-04-04T13:32:51.307Z,5.50
2019-04-04T13:35:20.992Z,5.50
2019-04-04T13:37:50.668Z,5.60
2019-04-04T13:40:20.375Z,5.70
2019-04-04T13:42:52.711Z,5.70
2019-04-04T13:45:24.759Z,5.80
2019-04-04T13:47:52.946Z,5.60
2019-04-04T13:50:22.713Z,5.70
2019-04-04T13:52:52.343Z,5.70
2019-04-04T13:55:22.044Z,5.70
2019-04-04T13:57:51.713Z,5.70
2019-04-04T14:00:21.790Z,5.60
2019-04-04T14:02:51.493Z,5.70
2019-04-04T14:05:21.252Z,5.60
2019-04-04T14:07:50.952Z,5.60
2019-04-04T14:10:20.619Z,5.40
2019-04-04T14:12:50.602Z,5.40
2019-04-04T14:15:20.242Z,5.40
2019-04-04T14:17:49.856Z,5.50
2019-04-04T14:20:19.499Z,5.50
2019-04-04T14:22:51.161Z,5.30
2019-04-04T14:25:23.550Z,5.40
2019-04-04T14:27:52.952Z,5.30
2019-04-04T14:30:22.937Z,5.30
2019-04-04T14:32:52.922Z,5.20
2019-04-04T14:35:22.563Z,5.40
2019-04-04T14:37:54.473Z,5.30
2019-04-04T14:40:23.440Z,5.30
2019-04-04T14:42:53.059Z,5.20
2019-04-04T14:45:22.696Z,5.20
2019-04-04T14:47:52.320Z,5.20
2019-04-04T14:50:22.022Z,5.30
2019-04-04T14:52:52.380Z,5.30
2019-04-04T14:55:22.177Z,5.30
2019-04-04T14:57:51.800Z,5.20
2019-04-04T15:00:21.853Z,5.40
2019-04-04T15:02:51.471Z,5.40
2019-04-04T15:05:21.110Z,5.50
2019-04-04T15:07:50.720Z,5.40
2019-04-04T15:10:20.451Z,5.40
2019-04-04T15:12:50.061Z,5.30
2019-04-04T15:15:19.702Z,5.40
2019-04-04T15:17:49.382Z,5.40
2019-04-04T15:20:19.367Z,5.30
2019-04-04T15:22:48.980Z,5.40
2019-04-04T15:25:18.621Z,5.50
2019-04-04T15:27:48.232Z,5.50
2019-04-04T15:30:17.953Z,5.20
2019-04-04T15:32:48.686Z,5.50
2019-04-04T15:35:18.329Z,6.00
2019-04-04T15:37:48.101Z,6.50
2019-04-04T15:40:17.813Z,6.80
2019-04-04T15:42:47.426Z,7.00
2019-04-04T15:45:17.108Z,7.30
2019-04-04T15:47:47.391Z,7.00
2019-04-04T15:50:17.117Z,6.10
2019-04-04T15:52:48.031Z,5.70
2019-04-04T15:55:17.569Z,5.50
2019-04-04T15:57:47.777Z,5.40
2019-04-04T16:00:17.633Z,5.40
2019-04-04T16:02:47.313Z,5.40
2019-04-04T16:05:17.152Z,5.30
2019-04-04T16:07:46.865Z,5.20
2019-04-04T16:10:16.623Z,5.20
2019-04-04T16:12:46.423Z,5.20
2019-04-04T16:15:16.106Z,5.10
2019-04-04T16:17:45.770Z,5.10
2019-04-04T16:20:16.026Z,5.00
2019-04-04T16:22:45.656Z,5.20
2019-04-04T16:25:15.345Z,5.30
2019-04-04T16:27:45.128Z,5.10
2019-04-04T16:30:14.980Z,5.10
2019-04-04T16:32:44.630Z,5.20
2019-04-04T16:35:14.414Z,5.20
2019-04-04T16:37:45.076Z,5.10
2019-04-04T16:40:15.137Z,5.20
2019-04-04T16:42:44.773Z,5.20
2019-04-04T16:45:14.825Z,5.30
2019-04-04T16:47:44.620Z,5.20
2019-04-04T16:50:14.645Z,5.20
2019-04-04T16:52:44.349Z,5.20
2019-04-04T16:55:14.110Z,5.10
2019-04-04T16:57:45.767Z,5.20
2019-04-04T17:00:20.623Z,5.10
2019-04-04T17:02:48.849Z,5.10
2019-04-04T17:05:18.610Z,5.10
2019-04-04T17:07:49.773Z,5.10
2019-04-04T17:10:19.729Z,5.10
2019-04-04T17:12:49.368Z,5.00
2019-04-04T17:15:18.987Z,5.10
2019-04-04T17:17:48.724Z,5.10
2019-04-04T17:20:20.726Z,5.20
2019-04-04T17:22:49.737Z,5.20
2019-04-04T17:25:19.353Z,5.20
2019-04-04T17:27:49.101Z,5.10
2019-04-04T17:30:19.057Z,5.10
2019-04-04T17:32:51.934Z,5.00
2019-04-04T17:35:21.657Z,5.00
2019-04-04T17:37:51.627Z,5.00
2019-04-04T17:40:21.495Z,5.00
2019-04-04T17:42:51.124Z,5.00
2019-04-04T17:45:21.084Z,5.10
2019-04-04T17:47:51.266Z,5.00
2019-04-04T17:50:21.837Z,4.90
2019-04-04T17:52:51.651Z,5.00
2019-04-04T17:55:21.345Z,5.10
2019-04-04T17:57:51.048Z,5.10
2019-04-04T18:00:23.416Z,5.00
2019-04-04T18:02:53.062Z,5.00
2019-04-04T18:05:24.196Z,5.00
2019-04-04T18:07:53.860Z,5.00
2019-04-04T18:10:23.540Z,4.80
2019-04-04T18:12:53.186Z,4.80
2019-04-04T18:15:22.825Z,4.80
2019-04-04T18:17:52.474Z,4.80
2019-04-04T18:20:22.275Z,4.80
2019-04-04T18:22:51.909Z,4.90
2019-04-04T18:25:21.544Z,4.80
2019-04-04T18:27:51.161Z,4.70
2019-04-04T18:30:21.041Z,4.70
2019-04-04T18:32:50.668Z,4.60
2019-04-04T18:35:21.041Z,4.70
2019-04-04T18:37:51.118Z,4.70
2019-04-04T18:40:21.074Z,4.60
2019-04-04T18:42:53.568Z,4.50
2019-04-04T18:45:21.978Z,4.60
2019-04-04T18:47:51.621Z,4.60
2019-04-04T18:50:21.332Z,4.60
2019-04-04T18:52:50.953Z,4.70
2019-04-04T18:55:20.592Z,4.70
2019-04-04T18:57:50.258Z,4.70
2019-04-04T19:00:20.195Z,4.60
2019-04-04T19:02:49.817Z,4.60
2019-04-04T19:05:19.637Z,4.60
2019-04-04T19:07:49.300Z,4.60
2019-04-04T19:10:19.272Z,4.60
2019-04-04T19:12:48.884Z,4.60
2019-04-04T19:15:19.134Z,4.50
2019-04-04T19:17:48.733Z,4.60
2019-04-04T19:20:18.442Z,4.70
2019-04-04T19:22:48.129Z,4.60
2019-04-04T19:25:17.838Z,4.60
2019-04-04T19:27:47.619Z,4.70
2019-04-04T19:30:18.369Z,4.70
2019-04-04T19:32:48.154Z,4.80
2019-04-04T19:35:17.963Z,4.70
2019-04-04T19:37:59.410Z,4.60
2019-04-04T19:40:19.648Z,4.60
2019-04-04T19:42:49.335Z,4.60
2019-04-04T19:45:21.273Z,4.60
2019-04-04T19:47:50.522Z,4.60
2019-04-04T19:50:20.233Z,4.70
2019-04-04T19:52:49.924Z,4.60
2019-04-04T19:55:19.557Z,4.60
2019-04-04T19:57:49.176Z,4.50
2019-04-04T20:00:19.630Z,4.50
2019-04-04T20:02:49.390Z,4.50
2019-04-04T20:05:19.208Z,4.50
2019-04-04T20:07:48.841Z,4.40
2019-04-04T20:10:18.563Z,4.40
2019-04-04T20:12:48.179Z,4.40
2019-04-04T20:15:17.827Z,4.30
2019-04-04T20:17:47.449Z,4.40
2019-04-04T20:20:17.169Z,4.40
2019-04-04T20:22:46.788Z,4.30
2019-04-04T20:25:16.440Z,4.30
2019-04-04T20:27:54.598Z,4.30
2019-04-04T20:30:20.437Z,4.20
2019-04-04T20:32:50.127Z,4.40
2019-04-04T20:35:19.745Z,4.30
2019-04-04T20:37:49.401Z,4.30
2019-04-04T20:40:19.053Z,4.30
2019-04-04T20:42:48.685Z,4.40
2019-04-04T20:45:18.386Z,4.40
2019-04-04T20:47:48.205Z,4.30
2019-04-04T20:50:17.826Z,4.30
2019-04-04T20:52:47.470Z,4.30
2019-04-04T20:55:17.098Z,4.30
2019-04-04T20:57:46.837Z,4.30
2019-04-04T21:00:17.204Z,4.30
2019-04-04T21:02:46.860Z,4.20
2019-04-04T21:05:16.498Z,4.30
2019-04-04T21:07:46.169Z,4.10
2019-04-04T21:10:15.965Z,4.10
2019-04-04T21:12:45.625Z,4.30
2019-04-04T21:15:15.309Z,4.40
2019-04-04T21:17:45.011Z,4.40
2019-04-04T21:20:14.764Z,4.40
2019-04-04T21:22:44.422Z,4.40
2019-04-04T21:25:14.181Z,4.40
2019-04-04T21:27:43.825Z,4.30
2019-04-04T21:30:13.789Z,4.30
2019-04-04T21:32:43.437Z,4.20
2019-04-04T21:35:13.061Z,4.20
2019-04-04T21:37:42.884Z,4.10
2019-04-04T21:40:12.681Z,4.20
2019-04-04T21:42:42.321Z,4.10
2019-04-04T21:45:15.066Z,4.30
2019-04-04T21:47:43.365Z,4.40
2019-04-04T21:50:13.057Z,4.40
2019-04-04T21:52:42.709Z,4.20
2019-04-04T21:55:12.470Z,4.20
2019-04-04T21:57:42.177Z,4.20
2019-04-04T22:00:12.072Z,4.20
2019-04-04T22:02:41.725Z,4.30
2019-04-04T22:05:11.693Z,4.40
2019-04-04T22:07:41.433Z,4.30
2019-04-04T22:10:11.497Z,4.40
2019-04-04T22:12:41.209Z,4.40
2019-04-04T22:15:11.250Z,4.40
2019-04-04T22:17:40.893Z,4.30
2019-04-04T22:20:10.663Z,4.40
2019-04-04T22:22:40.312Z,4.40
2019-04-04T22:25:10.169Z,4.40
2019-04-04T22:27:39.826Z,4.30
2019-04-04T22:30:09.981Z,4.40
2019-04-04T22:32:39.634Z,4.40
2019-04-04T22:35:09.390Z,4.30
2019-04-04T22:37:39.037Z,4.40
2019-04-04T22:40:08.925Z,4.40
2019-04-04T22:42:38.649Z,4.40
2019-04-04T22:45:08.608Z,4.20
2019-04-04T22:47:38.339Z,4.20
2019-04-04T22:50:08.027Z,4.10
2019-04-04T22:52:37.674Z,4.20
2019-04-04T22:55:07.743Z,4.00
2019-04-04T22:57:37.469Z,4.20
2019-04-04T23:00:09.105Z,4.00
2019-04-04T23:02:38.757Z,4.20
2019-04-04T23:05:08.649Z,4.30
2019-04-04T23:07:38.625Z,4.30
2019-04-04T23:10:09.584Z,4.30
2019-04-04T23:12:39.228Z,4.30
2019-04-04T23:15:10.792Z,4.30
2019-04-04T23:17:40.578Z,4.30
2019-04-04T23:20:10.637Z,4.30
2019-04-04T23:22:52.143Z,4.40
2019-04-04T23:25:11.798Z,4.40
2019-04-04T23:27:41.436Z,4.40
2019-04-04T23:30:11.600Z,4.40
2019-04-04T23:32:41.323Z,4.40
2019-04-04T23:35:11.085Z,4.30
2019-04-04T23:37:40.968Z,4.30
2019-04-04T23:40:10.834Z,4.40
2019-04-04T23:42:40.485Z,4.50
2019-04-04T23:45:10.193Z,4.30
2019-04-04T23:47:43.348Z,4.50
2019-04-04T23:50:11.234Z,4.50
2019-04-04T23:52:40.876Z,4.50
2019-04-04T23:55:10.841Z,4.40
2019-04-04T23:57:40.488Z,4.30
